Time;durP1;ratioP1;P1;durP2;ratioP2;P2;SDS_P1;SDS_P2;PMS_P1;PMS_P2;Temp;Humidity;BMP_temperature;BMP_pressure;BME280_temperature;BME280_humidity;BME280_pressure;Samples;Min_cycle;Max_cycle;Signal;HPM_P1;HPM_P2
2024/01/16 06:01:16;;;;;;;13.93;6.10;;;;;;;;;;5566831;23;21080;-78
2024/01/16 06:03:43;;;;;;;13.50;5.80;;;;;;;;;;4956081;29;20423;-78
2024/01/16 06:06:09;;;;;;;8.10;4.80;;;;;;;;;;4955424;29;20417;-78
2024/01/16 06:08:35;;;;;;;15.87;6.07;;;;;;;;;;4957079;29;20417;-79
2024/01/16 06:11:01;;;;;;;18.37;7.23;;;;;;;;;;4958364;28;20424;-78
2024/01/16 06:15:55;;;;;;;12.13;5.60;;;;;;;;;;4954764;29;21002;-75
2024/01/16 06:18:21;;;;;;;13.20;5.43;;;;;;;;;;4956606;28;20417;-75
2024/01/16 06:20:47;;;;;;;11.13;5.23;;;;;;;;;;4958109;28;20444;-75
2024/01/16 06:23:13;;;;;;;11.73;4.77;;;;;;;;;;4959249;28;20485;-75
2024/01/16 06:25:39;;;;;;;8.30;4.47;;;;;;;;;;4956334;28;20481;-75
2024/01/16 06:28:07;;;;;;;10.43;4.80;;;;;;;;;;4955654;28;20412;-75
2024/01/16 06:30:33;;;;;;;12.10;5.13;;;;;;;;;;4956095;28;20417;-73
2024/01/16 06:32:59;;;;;;;14.80;5.57;;;;;;;;;;4955619;28;20439;-75
2024/01/16 06:35:26;;;;;;;10.47;5.40;;;;;;;;;;4956378;28;20467;-74
2024/01/16 06:37:52;;;;;;;14.40;5.07;;;;;;;;;;4956109;28;20434;-75
2024/01/16 06:40:18;;;;;;;15.60;5.53;;;;;;;;;;4956054;28;20904;-76
2024/01/16 06:42:44;;;;;;;13.33;5.97;;;;;;;;;;4955772;28;20473;-75
2024/01/16 06:45:11;;;;;;;11.43;5.53;;;;;;;;;;4955456;28;20429;-75
2024/01/16 06:47:37;;;;;;;10.90;5.70;;;;;;;;;;4955700;28;20412;-74
2024/01/16 06:50:03;;;;;;;13.60;5.30;;;;;;;;;;4954692;28;20936;-75
2024/01/16 06:52:29;;;;;;;9.73;4.73;;;;;;;;;;4955594;28;20436;-77
2024/01/16 06:54:55;;;;;;;11.37;4.30;;;;;;;;;;4955241;28;20454;-73
2024/01/16 06:57:21;;;;;;;7.87;4.80;;;;;;;;;;4956459;28;20946;-75
2024/01/16 06:59:47;;;;;;;8.73;3.87;;;;;;;;;;4959016;28;20423;-76
2024/01/16 07:02:13;;;;;;;8.90;4.23;;;;;;;;;;4953925;28;20471;-73
2024/01/16 07:04:39;;;;;;;8.17;4.10;;;;;;;;;;4955206;28;20432;-74
2024/01/16 07:07:05;;;;;;;11.33;4.60;;;;;;;;;;4954088;28;20429;-73
2024/01/16 07:09:31;;;;;;;16.23;3.80;;;;;;;;;;4955263;28;20780;-74
2024/01/16 07:11:57;;;;;;;7.30;4.20;;;;;;;;;;4955051;28;20413;-75
2024/01/16 07:14:23;;;;;;;8.83;3.87;;;;;;;;;;4954431;28;20463;-74
2024/01/16 07:16:49;;;;;;;12.40;4.77;;;;;;;;;;4960695;28;20479;-74
2024/01/16 07:19:15;;;;;;;9.97;4.40;;;;;;;;;;4961637;28;20421;-75
2024/01/16 07:21:42;;;;;;;12.17;4.20;;;;;;;;;;4962981;28;20467;-74
2024/01/16 07:24:08;;;;;;;10.53;4.00;;;;;;;;;;4964571;28;20928;-74
2024/01/16 07:26:34;;;;;;;10.77;5.40;;;;;;;;;;4965805;28;20512;-75
2024/01/16 07:29:00;;;;;;;9.43;4.23;;;;;;;;;;4962277;28;20463;-75
2024/01/16 07:31:26;;;;;;;7.17;3.73;;;;;;;;;;4957265;28;20413;-75
2024/01/16 07:33:52;;;;;;;5.70;4.07;;;;;;;;;;4955128;28;20432;-75
2024/01/16 07:36:18;;;;;;;9.80;4.33;;;;;;;;;;4955305;28;20442;-75
2024/01/16 07:38:44;;;;;;;8.30;4.40;;;;;;;;;;4954884;28;20413;-75
2024/01/16 07:41:10;;;;;;;8.10;3.87;;;;;;;;;;4954337;28;20423;-73
2024/01/16 07:43:36;;;;;;;8.37;4.20;;;;;;;;;;4954452;28;20498;-75
2024/01/16 07:46:02;;;;;;;8.00;3.83;;;;;;;;;;4954574;28;20405;-75
2024/01/16 07:48:29;;;;;;;8.97;4.40;;;;;;;;;;4954458;28;20955;-76
2024/01/16 07:50:55;;;;;;;11.97;5.07;;;;;;;;;;4953508;28;20512;-75
2024/01/16 07:53:21;;;;;;;9.87;4.10;;;;;;;;;;4954455;28;20441;-73
2024/01/16 07:55:47;;;;;;;7.70;4.17;;;;;;;;;;4954224;28;20951;-74
2024/01/16 07:58:15;;;;;;;5.03;3.40;;;;;;;;;;4954644;28;20409;-75
2024/01/16 08:00:41;;;;;;;7.60;3.63;;;;;;;;;;4954332;28;20478;-74
2024/01/16 08:03:11;;;;;;;12.27;4.57;;;;;;;;;;4954490;28;20472;-74
2024/01/16 08:05:37;;;;;;;6.40;3.80;;;;;;;;;;4954165;28;20464;-75
2024/01/16 08:08:03;;;;;;;9.90;4.43;;;;;;;;;;4954275;28;20954;-74
2024/01/16 08:10:29;;;;;;;6.90;3.70;;;;;;;;;;4954153;28;20409;-75
2024/01/16 08:12:55;;;;;;;8.63;3.90;;;;;;;;;;4954322;28;20784;-74
2024/01/16 08:15:21;;;;;;;11.47;3.70;;;;;;;;;;4953934;28;20890;-75
2024/01/16 08:17:47;;;;;;;7.17;4.37;;;;;;;;;;4955187;28;20415;-74
2024/01/16 08:20:14;;;;;;;6.50;3.57;;;;;;;;;;4958528;28;20412;-74
2024/01/16 08:22:40;;;;;;;11.70;5.00;;;;;;;;;;4958989;28;20468;-75
2024/01/16 08:25:06;;;;;;;8.00;3.80;;;;;;;;;;4958516;28;20801;-74
2024/01/16 08:27:32;;;;;;;12.23;4.30;;;;;;;;;;4958810;28;20413;-75
2024/01/16 08:29:58;;;;;;;11.43;4.53;;;;;;;;;;4958864;28;20463;-73
2024/01/16 08:32:24;;;;;;;6.77;3.67;;;;;;;;;;4958302;28;20419;-73
2024/01/16 08:34:51;;;;;;;8.60;4.17;;;;;;;;;;4958040;28;20520;-74
2024/01/16 08:37:17;;;;;;;10.63;4.20;;;;;;;;;;4957935;28;20417;-73
2024/01/16 08:39:43;;;;;;;7.13;3.43;;;;;;;;;;4958157;28;20547;-74
2024/01/16 08:42:11;;;;;;;6.27;3.63;;;;;;;;;;4956815;28;20995;-75
2024/01/16 08:44:39;;;;;;;8.13;4.07;;;;;;;;;;4958091;28;20452;-75
2024/01/16 08:47:05;;;;;;;6.87;3.83;;;;;;;;;;4958173;28;20417;-75
2024/01/16 08:49:32;;;;;;;11.70;3.70;;;;;;;;;;4958051;28;20413;-75
2024/01/16 08:51:58;;;;;;;9.20;3.90;;;;;;;;;;4958346;28;20421;-75
2024/01/16 08:54:25;;;;;;;8.77;3.30;;;;;;;;;;4957764;28;20490;-75
2024/01/16 08:56:51;;;;;;;11.10;4.37;;;;;;;;;;4957488;28;20852;-75
2024/01/16 08:59:17;;;;;;;13.83;3.97;;;;;;;;;;4957617;28;20412;-75
2024/01/16 09:01:43;;;;;;;13.40;4.20;;;;;;;;;;4957183;28;20992;-74
2024/01/16 09:04:09;;;;;;;8.23;4.10;;;;;;;;;;4957349;28;20436;-74
2024/01/16 09:06:35;;;;;;;11.90;5.07;;;;;;;;;;4957194;28;20409;-75
2024/01/16 09:09:04;;;;;;;12.47;4.23;;;;;;;;;;4958205;28;20764;-73
2024/01/16 09:11:30;;;;;;;10.93;3.97;;;;;;;;;;4956516;28;20515;-75
2024/01/16 09:13:56;;;;;;;9.73;4.93;;;;;;;;;;4958269;28;20455;-75
2024/01/16 09:16:22;;;;;;;9.37;5.30;;;;;;;;;;4963046;28;20765;-74
2024/01/16 09:18:48;;;;;;;10.53;5.10;;;;;;;;;;4957376;28;20495;-75
2024/01/16 09:21:16;;;;;;;11.30;4.00;;;;;;;;;;4957465;28;20417;-75
2024/01/16 09:23:42;;;;;;;10.30;4.80;;;;;;;;;;4957785;28;20467;-76
2024/01/16 09:26:07;;;;;;;16.07;4.50;;;;;;;;;;4957358;28;20451;-75
2024/01/16 09:28:34;;;;;;;9.60;4.63;;;;;;;;;;4956234;28;20453;-75
2024/01/16 09:31:00;;;;;;;9.57;3.80;;;;;;;;;;4957790;28;20424;-75
2024/01/16 09:33:26;;;;;;;11.93;4.70;;;;;;;;;;4956687;28;20416;-75
2024/01/16 09:35:52;;;;;;;12.40;5.00;;;;;;;;;;4957674;28;20437;-74
2024/01/16 09:38:18;;;;;;;7.40;4.10;;;;;;;;;;4958699;28;20419;-74
2024/01/16 09:40:44;;;;;;;10.33;4.60;;;;;;;;;;4973273;28;20409;-74
2024/01/16 09:43:10;;;;;;;9.33;4.40;;;;;;;;;;4978496;28;20519;-74
2024/01/16 09:45:38;;;;;;;7.87;4.70;;;;;;;;;;4978904;28;20460;-75
2024/01/16 09:48:05;;;;;;;8.83;5.23;;;;;;;;;;4979643;28;20424;-72
2024/01/16 09:50:31;;;;;;;12.23;4.97;;;;;;;;;;4979129;28;20416;-75
2024/01/16 09:52:58;;;;;;;13.57;4.57;;;;;;;;;;4979860;28;20484;-74
2024/01/16 09:55:24;;;;;;;13.00;4.77;;;;;;;;;;4979363;28;20439;-75
2024/01/16 09:57:52;;;;;;;17.40;4.47;;;;;;;;;;4969414;28;20409;-75
2024/01/16 10:00:18;;;;;;;11.47;4.40;;;;;;;;;;4958466;28;20415;-74
2024/01/16 10:02:44;;;;;;;12.80;4.57;;;;;;;;;;4959334;28;20570;-75
2024/01/16 10:05:10;;;;;;;8.30;4.53;;;;;;;;;;4958753;28;20488;-75
2024/01/16 10:07:40;;;;;;;15.70;5.30;;;;;;;;;;4961172;28;20915;-75
2024/01/16 10:10:06;;;;;;;13.20;4.33;;;;;;;;;;4964357;28;20507;-75
2024/01/16 10:12:32;;;;;;;14.33;5.50;;;;;;;;;;4963971;28;20409;-72
2024/01/16 10:14:59;;;;;;;8.00;4.47;;;;;;;;;;4963962;28;20537;-75
2024/01/16 10:17:38;;;;;;;12.10;5.30;;;;;;;;;;4965176;28;20416;-74
2024/01/16 10:20:04;;;;;;;12.00;5.00;;;;;;;;;;4960717;28;20416;-75
2024/01/16 10:22:30;;;;;;;11.07;5.23;;;;;;;;;;4956519;28;20967;-73
2024/01/16 10:25:05;;;;;;;12.40;4.73;;;;;;;;;;4957071;28;20425;-74
2024/01/16 10:27:32;;;;;;;9.03;4.33;;;;;;;;;;4963436;28;20401;-75
2024/01/16 10:29:58;;;;;;;29.27;7.20;;;;;;;;;;4964221;28;20416;-75
2024/01/16 10:32:32;;;;;;;15.00;5.97;;;;;;;;;;4961979;28;20932;-75
2024/01/16 10:35:08;;;;;;;18.07;5.80;;;;;;;;;;4959973;28;20524;-76
2024/01/16 10:37:44;;;;;;;14.23;5.20;;;;;;;;;;4956402;29;20419;-75
2024/01/16 10:40:10;;;;;;;13.80;4.80;;;;;;;;;;4956365;28;20423;-75
2024/01/16 10:42:37;;;;;;;13.10;4.97;;;;;;;;;;4955203;28;20461;-74
2024/01/16 10:45:03;;;;;;;12.80;4.73;;;;;;;;;;4955974;28;20438;-74
2024/01/16 10:47:29;;;;;;;8.73;4.30;;;;;;;;;;4955889;28;20415;-74
2024/01/16 10:49:55;;;;;;;6.60;4.20;;;;;;;;;;4956665;28;20412;-74
2024/01/16 10:52:22;;;;;;;11.47;5.37;;;;;;;;;;4955859;28;20419;-74
2024/01/16 10:54:50;;;;;;;13.77;6.20;;;;;;;;;;4954779;28;20964;-76
2024/01/16 10:57:16;;;;;;;11.73;4.93;;;;;;;;;;4961925;28;20413;-75
2024/01/16 11:00:04;;;;;;;7.67;4.57;;;;;;;;;;4964900;28;20426;-75
2024/01/16 11:02:33;;;;;;;7.27;4.23;;;;;;;;;;4975658;28;20834;-74
2024/01/16 11:04:59;;;;;;;6.57;4.30;;;;;;;;;;4973611;28;20433;-74
2024/01/16 11:07:26;;;;;;;9.77;4.60;;;;;;;;;;4974014;28;20409;-74
2024/01/16 11:09:53;;;;;;;11.40;4.63;;;;;;;;;;4976724;28;20413;-74
2024/01/16 11:12:22;;;;;;;13.13;4.70;;;;;;;;;;4973663;28;20420;-74
2024/01/16 11:14:50;;;;;;;15.20;5.47;;;;;;;;;;4960602;28;20460;-75
2024/01/16 11:17:18;;;;;;;12.33;5.20;;;;;;;;;;4957080;28;20916;-75
2024/01/16 11:19:44;;;;;;;23.13;4.83;;;;;;;;;;4955737;28;20448;-73
2024/01/16 11:22:11;;;;;;;23.23;5.87;;;;;;;;;;4955489;28;21108;-76
2024/01/16 11:24:37;;;;;;;16.93;4.83;;;;;;;;;;4955963;28;20433;-74
2024/01/16 11:27:03;;;;;;;10.73;5.20;;;;;;;;;;4955261;28;20444;-74
2024/01/16 11:29:29;;;;;;;15.20;5.63;;;;;;;;;;4955451;28;20497;-74
2024/01/16 11:31:56;;;;;;;12.90;5.07;;;;;;;;;;4955024;28;20523;-74
2024/01/16 11:34:41;;;;;;;10.20;5.00;;;;;;;;;;4955033;28;20939;-75
2024/01/16 11:37:13;;;;;;;14.13;5.50;;;;;;;;;;4955243;28;20411;-75
2024/01/16 11:39:42;;;;;;;9.90;4.17;;;;;;;;;;4955990;28;20431;-75
2024/01/16 11:42:09;;;;;;;5.43;3.70;;;;;;;;;;4955148;28;20464;-75
2024/01/16 11:44:42;;;;;;;12.87;4.57;;;;;;;;;;4954902;28;20439;-74
2024/01/16 11:47:08;;;;;;;13.43;4.50;;;;;;;;;;4954493;28;20420;-73
2024/01/16 11:49:35;;;;;;;10.10;4.17;;;;;;;;;;4954847;28;20413;-75
2024/01/16 11:52:02;;;;;;;18.43;5.37;;;;;;;;;;4954241;28;20779;-74
2024/01/16 11:54:28;;;;;;;13.43;5.03;;;;;;;;;;4954138;28;20436;-73
2024/01/16 11:57:12;;;;;;;10.87;5.10;;;;;;;;;;4954636;28;20424;-74
2024/01/16 11:59:38;;;;;;;9.23;4.20;;;;;;;;;;4954636;28;20412;-75
2024/01/16 12:02:09;;;;;;;12.40;4.50;;;;;;;;;;4954339;28;20468;-73
2024/01/16 12:04:36;;;;;;;15.70;5.13;;;;;;;;;;4954309;28;20551;-73
2024/01/16 12:07:03;;;;;;;7.80;4.40;;;;;;;;;;4954793;28;20404;-75
2024/01/16 12:09:29;;;;;;;11.77;4.50;;;;;;;;;;4954316;28;20820;-73
2024/01/16 12:11:59;;;;;;;9.20;4.40;;;;;;;;;;4954246;28;20440;-75
2024/01/16 12:14:25;;;;;;;9.60;3.50;;;;;;;;;;4955663;28;20452;-74
2024/01/16 12:16:51;;;;;;;8.90;4.00;;;;;;;;;;4954015;28;20424;-74
2024/01/16 12:19:17;;;;;;;9.33;3.87;;;;;;;;;;4955124;28;20797;-72
2024/01/16 12:21:44;;;;;;;13.30;4.17;;;;;;;;;;4954390;28;20460;-75
2024/01/16 12:24:10;;;;;;;11.97;4.27;;;;;;;;;;4954478;28;20759;-74
2024/01/16 12:26:37;;;;;;;8.67;3.83;;;;;;;;;;4953871;28;20415;-74
2024/01/16 12:29:03;;;;;;;10.40;3.57;;;;;;;;;;4954867;28;20500;-74
2024/01/16 12:31:29;;;;;;;5.50;3.40;;;;;;;;;;4953550;28;20420;-74
2024/01/16 12:34:10;;;;;;;5.07;3.50;;;;;;;;;;4953621;28;20429;-74
2024/01/16 12:36:37;;;;;;;7.27;3.77;;;;;;;;;;4953740;28;20413;-74
2024/01/16 12:39:03;;;;;;;6.07;3.50;;;;;;;;;;4954026;28;20466;-73
2024/01/16 12:41:33;;;;;;;5.80;3.30;;;;;;;;;;4952542;28;20417;-73
2024/01/16 12:43:59;;;;;;;7.33;3.27;;;;;;;;;;4954099;28;21038;-75
2024/01/16 12:46:25;;;;;;;9.73;3.10;;;;;;;;;;4953840;28;20924;-74
2024/01/16 12:48:51;;;;;;;11.20;3.33;;;;;;;;;;4953714;28;20412;-73
2024/01/16 12:51:24;;;;;;;9.60;3.60;;;;;;;;;;4953614;28;20900;-73
2024/01/16 12:53:50;;;;;;;6.40;2.53;;;;;;;;;;4953849;28;20429;-74
2024/01/16 12:56:20;;;;;;;2.73;2.57;;;;;;;;;;4953472;28;20416;-72
2024/01/16 12:58:46;;;;;;;5.30;2.50;;;;;;;;;;4953650;28;20417;-71
2024/01/16 13:01:26;;;;;;;8.60;2.70;;;;;;;;;;4953742;28;20464;-74
2024/01/16 13:03:52;;;;;;;7.47;3.50;;;;;;;;;;4953562;28;20449;-74
2024/01/16 13:06:19;;;;;;;12.73;3.30;;;;;;;;;;4955967;28;20405;-73
2024/01/16 13:08:46;;;;;;;5.33;3.10;;;;;;;;;;4956668;28;20405;-74
2024/01/16 13:11:12;;;;;;;2.40;2.20;;;;;;;;;;4957501;28;20405;-74
2024/01/16 13:13:38;;;;;;;6.13;2.83;;;;;;;;;;4957331;28;20435;-75
2024/01/16 13:16:07;;;;;;;6.67;2.80;;;;;;;;;;4957341;28;20908;-74
2024/01/16 13:18:34;;;;;;;8.30;2.50;;;;;;;;;;4958169;28;20930;-75
2024/01/16 13:21:00;;;;;;;3.27;2.17;;;;;;;;;;4956480;28;20424;-73
2024/01/16 13:23:27;;;;;;;4.10;2.20;;;;;;;;;;4957592;28;20467;-76
2024/01/16 13:25:55;;;;;;;9.00;2.97;;;;;;;;;;4955955;28;20448;-76
2024/01/16 13:28:21;;;;;;;6.40;2.93;;;;;;;;;;4957447;28;20409;-77
2024/01/16 13:30:48;;;;;;;2.80;2.10;;;;;;;;;;4947282;28;20525;-77
2024/01/16 13:33:15;;;;;;;3.37;2.33;;;;;;;;;;4949772;29;20425;-77
2024/01/16 13:35:43;;;;;;;5.07;2.30;;;;;;;;;;4947124;28;20524;-77
2024/01/16 13:38:09;;;;;;;5.87;2.60;;;;;;;;;;4937627;29;20424;-76
2024/01/16 13:40:35;;;;;;;6.57;2.50;;;;;;;;;;4952143;29;20769;-74
2024/01/16 13:43:02;;;;;;;6.83;3.10;;;;;;;;;;4955282;28;20480;-75
2024/01/16 13:45:28;;;;;;;6.00;2.97;;;;;;;;;;4956509;28;20947;-75
2024/01/16 13:47:57;;;;;;;6.33;2.97;;;;;;;;;;4954154;28;20475;-77
2024/01/16 13:50:23;;;;;;;7.47;3.33;;;;;;;;;;4954689;28;20445;-76
2024/01/16 13:52:50;;;;;;;5.83;3.23;;;;;;;;;;4953533;28;20456;-78
2024/01/16 13:55:16;;;;;;;11.43;3.23;;;;;;;;;;4942152;28;20438;-77
2024/01/16 13:57:42;;;;;;;6.70;3.10;;;;;;;;;;4956761;29;20417;-78
2024/01/16 14:00:13;;;;;;;5.70;3.13;;;;;;;;;;4956641;28;20779;-76
2024/01/16 14:02:40;;;;;;;6.13;3.00;;;;;;;;;;4957657;28;20464;-75
2024/01/16 14:05:09;;;;;;;8.03;3.37;;;;;;;;;;4956527;28;20437;-76
2024/01/16 14:07:35;;;;;;;8.60;3.50;;;;;;;;;;4954992;28;20560;-76
2024/01/16 14:10:01;;;;;;;16.70;3.07;;;;;;;;;;4955179;28;20553;-76
2024/01/16 14:12:27;;;;;;;5.33;2.30;;;;;;;;;;4955556;28;20487;-76
2024/01/16 14:14:52;;;;;;;5.97;2.80;;;;;;;;;;4955875;28;20460;-76
2024/01/16 14:17:18;;;;;;;8.10;3.10;;;;;;;;;;4953581;28;20448;-75
2024/01/16 14:19:44;;;;;;;12.90;2.73;;;;;;;;;;4951754;28;20515;-75
2024/01/16 14:22:10;;;;;;;8.80;3.07;;;;;;;;;;4948170;28;20464;-72
2024/01/16 14:24:37;;;;;;;3.70;2.90;;;;;;;;;;4955115;28;20432;-71
2024/01/16 14:27:04;;;;;;;8.40;2.67;;;;;;;;;;4952881;28;20417;-75
2024/01/16 14:29:30;;;;;;;4.37;3.13;;;;;;;;;;4936387;29;20759;-75
2024/01/16 14:31:56;;;;;;;5.30;3.20;;;;;;;;;;4936768;29;20445;-74
2024/01/16 14:34:23;;;;;;;8.60;2.90;;;;;;;;;;4936564;29;20807;-74
2024/01/16 14:36:49;;;;;;;3.33;2.70;;;;;;;;;;4936878;29;20513;-75
2024/01/16 14:39:17;;;;;;;5.27;2.90;;;;;;;;;;4956046;29;20425;-73
2024/01/16 14:41:43;;;;;;;7.23;3.10;;;;;;;;;;4954323;29;20510;-71
2024/01/16 14:44:09;;;;;;;3.97;2.50;;;;;;;;;;4959820;28;20521;-71
2024/01/16 14:46:36;;;;;;;6.30;3.77;;;;;;;;;;4948622;29;20468;-73
2024/01/16 14:49:02;;;;;;;5.20;2.90;;;;;;;;;;4959451;28;20780;-73
2024/01/16 14:51:28;;;;;;;3.87;2.60;;;;;;;;;;4945785;28;20414;-72
2024/01/16 14:53:54;;;;;;;4.30;2.83;;;;;;;;;;4937133;29;20988;-72
2024/01/16 14:56:20;;;;;;;4.97;3.30;;;;;;;;;;4940865;29;20433;-71
2024/01/16 14:58:46;;;;;;;6.10;3.83;;;;;;;;;;4955955;28;20939;-71
2024/01/16 15:01:12;;;;;;;10.20;3.90;;;;;;;;;;4955294;28;20420;-71
2024/01/16 15:03:38;;;;;;;8.33;3.87;;;;;;;;;;4942925;28;20470;-72
2024/01/16 15:06:05;;;;;;;5.97;3.10;;;;;;;;;;4935720;29;20436;-76
2024/01/16 15:08:32;;;;;;;7.80;4.30;;;;;;;;;;4944980;29;20457;-75
2024/01/16 15:11:02;;;;;;;10.57;4.13;;;;;;;;;;4955605;28;20420;-78
2024/01/16 15:13:28;;;;;;;7.00;3.00;;;;;;;;;;4945224;28;20429;-72
2024/01/16 15:15:55;;;;;;;5.90;3.50;;;;;;;;;;4941819;29;20512;-73
2024/01/16 15:18:21;;;;;;;4.80;3.80;;;;;;;;;;4945308;29;20460;-73
2024/01/16 15:20:47;;;;;;;7.50;3.60;;;;;;;;;;4944182;28;20421;-74
2024/01/16 15:23:13;;;;;;;11.70;4.50;;;;;;;;;;4944413;29;20484;-74
2024/01/16 15:25:39;;;;;;;9.07;3.63;;;;;;;;;;4940854;29;20543;-74
2024/01/16 15:28:05;;;;;;;8.47;3.73;;;;;;;;;;4935818;29;20471;-74
2024/01/16 15:30:32;;;;;;;7.90;4.07;;;;;;;;;;4937305;29;20440;-75
2024/01/16 15:32:59;;;;;;;12.90;4.93;;;;;;;;;;4941730;28;20421;-73
2024/01/16 15:35:25;;;;;;;9.98;5.32;;;;;;;;;;4947410;29;20499;-72
2024/01/16 15:37:52;;;;;;;4.80;3.43;;;;;;;;;;4946948;28;20207;-72
2024/01/16 15:40:18;;;;;;;7.00;4.30;;;;;;;;;;4948524;29;20843;-73
2024/01/16 15:42:44;;;;;;;7.10;3.40;;;;;;;;;;4950886;29;20479;-72
2024/01/16 15:45:11;;;;;;;6.80;3.37;;;;;;;;;;4949605;29;20443;-73
2024/01/16 15:47:37;;;;;;;8.03;3.70;;;;;;;;;;4947978;28;20417;-72
2024/01/16 15:50:04;;;;;;;8.23;3.90;;;;;;;;;;4946891;29;20425;-72
2024/01/16 15:52:30;;;;;;;11.77;4.20;;;;;;;;;;4946156;28;20913;-73
2024/01/16 15:54:56;;;;;;;9.20;3.60;;;;;;;;;;4947140;28;20455;-73
2024/01/16 15:57:22;;;;;;;6.00;3.43;;;;;;;;;;4941185;28;20432;-71
2024/01/16 15:59:48;;;;;;;7.87;4.43;;;;;;;;;;4940946;28;20476;-73
2024/01/16 16:02:14;;;;;;;12.40;3.60;;;;;;;;;;4935299;29;20462;-73
2024/01/16 16:04:41;;;;;;;7.93;3.30;;;;;;;;;;4948204;29;20508;-73
2024/01/16 16:07:07;;;;;;;17.00;4.10;;;;;;;;;;4949388;28;20405;-73
2024/01/16 16:09:36;;;;;;;18.20;4.00;;;;;;;;;;4947817;29;20456;-72
2024/01/16 16:12:03;;;;;;;5.27;3.33;;;;;;;;;;4943930;28;20421;-74
2024/01/16 16:14:34;;;;;;;8.60;3.30;;;;;;;;;;4946538;29;20528;-73
2024/01/16 16:17:01;;;;;;;5.60;3.60;;;;;;;;;;4945867;28;20452;-72
2024/01/16 16:19:28;;;;;;;4.70;3.17;;;;;;;;;;4946334;29;20416;-73
2024/01/16 16:21:54;;;;;;;10.13;3.60;;;;;;;;;;4951346;28;20554;-73
2024/01/16 16:24:20;;;;;;;12.13;3.80;;;;;;;;;;4954035;28;20441;-73
2024/01/16 16:26:46;;;;;;;9.03;3.93;;;;;;;;;;4945335;28;20409;-72
2024/01/16 16:29:15;;;;;;;14.40;4.20;;;;;;;;;;4952683;29;20997;-75
2024/01/16 16:31:43;;;;;;;18.00;4.73;;;;;;;;;;4953764;28;20427;-72
2024/01/16 16:34:11;;;;;;;21.00;8.33;;;;;;;;;;4953561;28;20483;-72
2024/01/16 16:36:40;;;;;;;18.90;5.87;;;;;;;;;;4947434;28;20432;-74
2024/01/16 16:39:06;;;;;;;26.53;4.70;;;;;;;;;;4935927;29;20412;-73
2024/01/16 16:41:38;;;;;;;16.70;5.10;;;;;;;;;;4938457;29;20405;-73
2024/01/16 16:44:04;;;;;;;11.07;4.60;;;;;;;;;;4938270;29;20943;-74
2024/01/16 16:46:30;;;;;;;15.57;4.63;;;;;;;;;;4946221;29;20495;-73
2024/01/16 16:48:56;;;;;;;12.83;5.53;;;;;;;;;;4942829;29;20459;-73
2024/01/16 16:51:23;;;;;;;16.47;5.30;;;;;;;;;;4957333;28;20997;-73
2024/01/16 16:53:50;;;;;;;23.67;4.37;;;;;;;;;;4953855;28;20949;-72
2024/01/16 16:56:16;;;;;;;16.03;5.50;;;;;;;;;;4943524;29;20420;-72
2024/01/16 16:58:47;;;;;;;6.90;4.27;;;;;;;;;;4957367;28;20431;-73
2024/01/16 17:01:17;;;;;;;11.77;5.03;;;;;;;;;;4957453;28;20467;-74
2024/01/16 17:03:45;;;;;;;17.07;7.20;;;;;;;;;;4958006;28;20839;-73
2024/01/16 17:06:11;;;;;;;20.27;7.80;;;;;;;;;;4956897;28;20501;-73
2024/01/16 17:08:37;;;;;;;33.37;6.80;;;;;;;;;;4957050;28;20792;-75
2024/01/16 17:11:04;;;;;;;15.97;7.00;;;;;;;;;;4954602;28;20985;-75
2024/01/16 17:13:31;;;;;;;17.97;7.40;;;;;;;;;;4956307;28;20793;-75
2024/01/16 17:15:57;;;;;;;17.80;8.00;;;;;;;;;;4957208;28;20467;-74
2024/01/16 17:18:23;;;;;;;23.00;7.77;;;;;;;;;;4956864;28;20439;-74
2024/01/16 17:20:51;;;;;;;29.73;8.43;;;;;;;;;;4957726;28;20912;-78
2024/01/16 17:23:17;;;;;;;33.40;9.10;;;;;;;;;;4950424;28;20472;-75
2024/01/16 17:25:43;;;;;;;27.00;8.17;;;;;;;;;;4953626;28;20472;-75
2024/01/16 17:28:10;;;;;;;20.53;8.53;;;;;;;;;;4956800;28;20966;-74
2024/01/16 17:30:36;;;;;;;27.10;11.10;;;;;;;;;;4956442;28;20960;-75
2024/01/16 17:33:02;;;;;;;32.30;10.33;;;;;;;;;;4951555;28;20421;-75
2024/01/16 17:35:29;;;;;;;35.90;9.27;;;;;;;;;;4946905;28;20477;-75
2024/01/16 17:37:55;;;;;;;32.43;9.83;;;;;;;;;;4947621;29;20488;-75
2024/01/16 17:40:21;;;;;;;12.17;6.83;;;;;;;;;;4949204;28;20484;-74
2024/01/16 17:42:47;;;;;;;17.27;8.63;;;;;;;;;;4956243;28;20484;-74
2024/01/16 17:45:13;;;;;;;16.83;6.73;;;;;;;;;;4955490;28;20523;-74
2024/01/16 17:47:39;;;;;;;16.30;7.23;;;;;;;;;;4948365;29;20451;-74
2024/01/16 17:50:08;;;;;;;25.00;8.40;;;;;;;;;;4959086;28;20401;-73
2024/01/16 17:52:35;;;;;;;27.73;7.70;;;;;;;;;;4969090;28;20427;-74
2024/01/16 17:55:01;;;;;;;22.73;8.83;;;;;;;;;;4972204;28;20440;-75
2024/01/16 17:57:28;;;;;;;15.30;7.03;;;;;;;;;;4971094;28;20906;-75
2024/01/16 17:59:54;;;;;;;24.90;8.03;;;;;;;;;;4959084;28;20440;-76
2024/01/16 18:02:20;;;;;;;15.73;7.90;;;;;;;;;;4955483;28;20514;-75
2024/01/16 18:04:45;;;;;;;26.33;9.03;;;;;;;;;;4956989;28;20428;-76
2024/01/16 18:07:13;;;;;;;32.93;9.03;;;;;;;;;;4945890;29;20436;-74
2024/01/16 18:09:39;;;;;;;21.43;8.40;;;;;;;;;;4947865;28;20421;-76
2024/01/16 18:12:05;;;;;;;23.20;7.73;;;;;;;;;;4935976;29;20433;-74
2024/01/16 18:14:31;;;;;;;21.37;8.70;;;;;;;;;;4952537;29;20464;-73
2024/01/16 18:16:57;;;;;;;19.37;7.90;;;;;;;;;;4940625;29;20451;-74
2024/01/16 18:19:27;;;;;;;13.10;7.80;;;;;;;;;;4955965;28;20515;-75
2024/01/16 18:21:56;;;;;;;24.07;8.00;;;;;;;;;;4987109;23;20513;-79
2024/01/16 18:24:22;;;;;;;14.43;7.10;;;;;;;;;;4955075;28;20561;-80
2024/01/16 18:26:48;;;;;;;17.43;7.70;;;;;;;;;;4956445;28;20420;-78
2024/01/16 18:29:16;;;;;;;24.07;8.83;;;;;;;;;;4953975;28;20426;-78
2024/01/16 18:31:42;;;;;;;21.87;8.50;;;;;;;;;;4957374;28;20462;-79
2024/01/16 18:34:09;;;;;;;22.50;8.37;;;;;;;;;;4937686;29;20418;-81
2024/01/16 18:36:35;;;;;;;20.60;9.00;;;;;;;;;;4936483;29;20433;-79
2024/01/16 18:39:03;;;;;;;21.50;9.07;;;;;;;;;;4934062;29;20419;-78
2024/01/16 18:41:29;;;;;;;26.80;9.80;;;;;;;;;;4936063;29;20497;-80
2024/01/16 18:43:55;;;;;;;24.90;10.07;;;;;;;;;;4940933;29;20526;-79
2024/01/16 18:46:23;;;;;;;24.63;8.53;;;;;;;;;;4934582;29;20436;-81
2024/01/16 18:48:49;;;;;;;21.50;9.80;;;;;;;;;;4936726;29;20421;-80
2024/01/16 18:51:17;;;;;;;32.77;10.97;;;;;;;;;;4924875;29;20549;-76
2024/01/16 18:53:43;;;;;;;26.37;9.80;;;;;;;;;;4933143;29;20458;-77
2024/01/16 18:56:13;;;;;;;24.13;9.37;;;;;;;;;;4934790;29;20992;-77
2024/01/16 18:58:39;;;;;;;18.70;8.70;;;;;;;;;;4936518;29;20453;-77
2024/01/16 19:01:05;;;;;;;25.40;9.63;;;;;;;;;;4934403;29;20859;-78
2024/01/16 19:03:34;;;;;;;31.53;12.47;;;;;;;;;;4934776;29;20461;-79
2024/01/16 19:06:00;;;;;;;29.93;10.60;;;;;;;;;;4936667;29;20414;-79
2024/01/16 19:08:26;;;;;;;41.27;11.40;;;;;;;;;;4935005;29;20769;-77
2024/01/16 19:10:53;;;;;;;23.20;10.80;;;;;;;;;;4935234;29;20448;-80
2024/01/16 19:13:20;;;;;;;36.83;11.57;;;;;;;;;;4937039;29;20484;-78
2024/01/16 19:15:46;;;;;;;31.83;10.17;;;;;;;;;;4936896;29;20483;-79
2024/01/16 19:18:13;;;;;;;27.33;11.37;;;;;;;;;;4934627;29;20751;-71
2024/01/16 19:20:38;;;;;;;31.77;10.57;;;;;;;;;;4930840;29;20476;-77
2024/01/16 19:23:05;;;;;;;23.37;11.23;;;;;;;;;;4926205;29;20465;-76
2024/01/16 19:25:31;;;;;;;33.37;12.87;;;;;;;;;;4934899;29;20893;-76
2024/01/16 19:27:57;;;;;;;34.23;12.67;;;;;;;;;;4932003;29;20476;-71
2024/01/16 19:30:23;;;;;;;27.43;10.80;;;;;;;;;;4941172;29;20437;-78
2024/01/16 19:32:49;;;;;;;31.37;11.37;;;;;;;;;;4935173;29;20500;-78
2024/01/16 19:35:16;;;;;;;24.97;11.80;;;;;;;;;;4926300;29;20474;-78
2024/01/16 19:37:42;;;;;;;29.10;11.73;;;;;;;;;;4927027;29;20921;-77
2024/01/16 19:40:11;;;;;;;43.67;12.60;;;;;;;;;;4931123;29;20438;-77
2024/01/16 19:42:38;;;;;;;31.67;12.60;;;;;;;;;;4934837;29;20532;-78
2024/01/16 19:45:06;;;;;;;31.60;12.27;;;;;;;;;;4933364;29;20792;-77
2024/01/16 19:47:34;;;;;;;30.43;12.17;;;;;;;;;;4934929;29;20837;-77
2024/01/16 19:50:05;;;;;;;26.00;11.40;;;;;;;;;;4934765;29;20917;-79
2024/01/16 19:52:31;;;;;;;28.40;12.20;;;;;;;;;;4931785;29;20422;-77
2024/01/16 19:55:00;;;;;;;39.90;13.03;;;;;;;;;;4934947;29;20424;-77
2024/01/16 19:57:26;;;;;;;38.00;12.90;;;;;;;;;;4933402;29;20789;-75
2024/01/16 19:59:52;;;;;;;22.63;11.20;;;;;;;;;;4934846;29;20418;-76
2024/01/16 20:02:20;;;;;;;37.23;11.50;;;;;;;;;;4934499;29;20992;-76
2024/01/16 20:04:46;;;;;;;22.63;11.67;;;;;;;;;;4934544;29;20433;-77
2024/01/16 20:07:13;;;;;;;30.03;11.70;;;;;;;;;;4932943;29;20413;-74
2024/01/16 20:09:39;;;;;;;33.83;12.40;;;;;;;;;;4924424;29;20425;-75
2024/01/16 20:12:06;;;;;;;28.30;12.00;;;;;;;;;;4934214;29;20453;-75
2024/01/16 20:14:33;;;;;;;28.53;11.30;;;;;;;;;;4934022;29;20989;-76
2024/01/16 20:17:01;;;;;;;30.10;12.70;;;;;;;;;;4926929;29;20438;-76
2024/01/16 20:19:27;;;;;;;31.83;12.60;;;;;;;;;;4934376;29;20528;-77
2024/01/16 20:21:53;;;;;;;42.43;12.50;;;;;;;;;;4930204;29;20519;-76
2024/01/16 20:24:19;;;;;;;23.67;11.50;;;;;;;;;;4921279;29;20450;-76
2024/01/16 20:26:45;;;;;;;24.47;12.50;;;;;;;;;;4931501;29;20469;-76
2024/01/16 20:29:12;;;;;;;33.00;12.80;;;;;;;;;;4928268;29;20418;-76
2024/01/16 20:31:40;;;;;;;39.73;13.50;;;;;;;;;;4934006;29;20437;-77
2024/01/16 20:34:06;;;;;;;25.10;11.23;;;;;;;;;;4934974;29;20422;-77